Time;durP1;ratioP1;P1;durP2;ratioP2;P2;SDS_P1;SDS_P2;PMS_P1;PMS_P2;Temp;Humidity;BMP_temperature;BMP_pressure;BME280_temperature;BME280_humidity;BME280_pressure;Samples;Min_cycle;Max_cycle;Signal;HPM_P1;HPM_P2
2021/07/19 00:02:15;;;;;;;9.73;7.27;;;;;;;;;;5097918;28;20226;-64
2021/07/19 00:04:45;;;;;;;9.30;5.90;;;;;;;;;;5098018;28;20200;-64
2021/07/19 00:07:13;;;;;;;8.80;6.30;;;;;;;;;;5097960;28;20289;-64
2021/07/19 00:09:44;;;;;;;12.10;6.77;;;;;;;;;;5097342;28;20237;-64
2021/07/19 00:12:13;;;;;;;9.80;6.47;;;;;;;;;;5097270;28;20265;-63
2021/07/19 00:14:43;;;;;;;6.90;5.90;;;;;;;;;;5097463;28;20270;-63
2021/07/19 00:17:11;;;;;;;11.13;6.47;;;;;;;;;;5097381;28;20210;-63
2021/07/19 00:19:39;;;;;;;8.90;5.97;;;;;;;;;;5097636;28;20665;-63
2021/07/19 00:22:07;;;;;;;9.13;6.70;;;;;;;;;;5097240;28;20223;-63
2021/07/19 00:24:36;;;;;;;7.70;6.53;;;;;;;;;;5097514;28;20229;-63
2021/07/19 00:27:04;;;;;;;12.90;6.77;;;;;;;;;;5096999;28;20214;-63
2021/07/19 00:29:33;;;;;;;11.03;6.80;;;;;;;;;;5097826;28;20212;-63
2021/07/19 00:32:03;;;;;;;11.47;6.20;;;;;;;;;;5097745;28;20242;-63
2021/07/19 00:34:31;;;;;;;8.00;6.30;;;;;;;;;;5112538;28;20206;-63
2021/07/19 00:36:59;;;;;;;9.87;7.03;;;;;;;;;;5118134;28;20593;-63
2021/07/19 00:39:28;;;;;;;9.37;6.47;;;;;;;;;;5117818;28;20235;-63
2021/07/19 00:41:56;;;;;;;10.43;7.07;;;;;;;;;;5118022;28;20224;-63
2021/07/19 00:44:24;;;;;;;9.37;6.57;;;;;;;;;;5118218;28;20309;-62
2021/07/19 00:50:15;;;;;;;7.50;5.83;;;;;;;;;;5097813;28;20208;-64
2021/07/19 00:52:43;;;;;;;10.90;6.43;;;;;;;;;;5098627;28;20238;-64
2021/07/19 00:55:12;;;;;;;10.50;6.27;;;;;;;;;;5106866;28;20207;-64
2021/07/19 00:57:42;;;;;;;16.73;6.73;;;;;;;;;;5102505;28;20673;-64
2021/07/19 01:00:11;;;;;;;12.97;6.90;;;;;;;;;;5101474;28;20212;-66
2021/07/19 01:02:40;;;;;;;11.97;7.23;;;;;;;;;;5101412;28;20285;-63
2021/07/19 01:05:09;;;;;;;10.73;7.20;;;;;;;;;;5101082;28;20660;-63
2021/07/19 01:07:39;;;;;;;12.80;6.97;;;;;;;;;;5101072;28;20685;-63
2021/07/19 01:10:09;;;;;;;8.97;6.70;;;;;;;;;;5100920;28;20269;-65
2021/07/19 01:12:37;;;;;;;11.13;6.90;;;;;;;;;;5100909;28;20650;-65
2021/07/19 01:15:06;;;;;;;10.27;6.53;;;;;;;;;;5101412;28;20209;-65
2021/07/19 01:17:34;;;;;;;7.87;6.20;;;;;;;;;;5101355;28;20239;-64
2021/07/19 01:20:02;;;;;;;10.97;6.53;;;;;;;;;;5101194;28;20209;-64
2021/07/19 01:22:37;;;;;;;9.27;6.20;;;;;;;;;;5101190;28;20222;-64
2021/07/19 01:25:10;;;;;;;11.40;6.63;;;;;;;;;;5100956;28;20233;-64
2021/07/19 01:27:52;;;;;;;11.60;6.40;;;;;;;;;;5101154;28;20206;-64
2021/07/19 01:30:21;;;;;;;9.60;6.00;;;;;;;;;;5101327;28;20205;-64
2021/07/19 01:32:50;;;;;;;10.30;6.77;;;;;;;;;;5101224;28;20312;-65
2021/07/19 01:35:18;;;;;;;9.53;6.37;;;;;;;;;;5101259;28;20212;-62
2021/07/19 01:37:47;;;;;;;9.80;6.73;;;;;;;;;;5100925;28;20234;-65
2021/07/19 01:40:17;;;;;;;11.90;6.80;;;;;;;;;;5100290;28;20216;-65
2021/07/19 01:42:45;;;;;;;8.57;6.70;;;;;;;;;;5100679;28;20273;-65
2021/07/19 01:45:14;;;;;;;8.67;6.37;;;;;;;;;;5100512;28;20237;-64
2021/07/19 01:47:44;;;;;;;9.67;6.60;;;;;;;;;;5100074;28;20212;-63
2021/07/19 01:50:12;;;;;;;10.63;6.30;;;;;;;;;;5100274;28;20208;-64
2021/07/19 01:52:40;;;;;;;8.63;6.03;;;;;;;;;;5100385;28;20267;-64
2021/07/19 01:55:09;;;;;;;9.50;6.10;;;;;;;;;;5100095;28;20715;-65
2021/07/19 01:57:37;;;;;;;8.93;6.17;;;;;;;;;;5100334;28;20591;-64
2021/07/19 02:00:06;;;;;;;11.33;6.20;;;;;;;;;;5100548;28;20205;-65
2021/07/19 02:02:35;;;;;;;11.43;7.10;;;;;;;;;;5100608;28;20227;-64
2021/07/19 02:05:07;;;;;;;11.33;6.97;;;;;;;;;;5100330;28;20225;-64
2021/07/19 02:07:35;;;;;;;10.73;6.63;;;;;;;;;;5100085;28;20205;-65
2021/07/19 02:10:05;;;;;;;9.23;6.57;;;;;;;;;;5100140;28;20212;-64
2021/07/19 02:12:34;;;;;;;11.00;6.20;;;;;;;;;;5100024;28;20230;-64
2021/07/19 02:15:02;;;;;;;8.17;6.50;;;;;;;;;;5100148;28;20208;-64
2021/07/19 02:17:30;;;;;;;10.37;6.33;;;;;;;;;;5099988;28;20217;-64
2021/07/19 02:19:58;;;;;;;11.03;6.80;;;;;;;;;;5100233;28;20201;-64
2021/07/19 02:22:28;;;;;;;9.43;6.73;;;;;;;;;;5100076;28;20599;-64
2021/07/19 02:24:56;;;;;;;10.03;6.57;;;;;;;;;;5099721;28;20245;-65
2021/07/19 02:27:24;;;;;;;10.20;6.43;;;;;;;;;;5100266;28;20265;-62
2021/07/19 02:29:52;;;;;;;11.93;6.40;;;;;;;;;;5100173;28;20216;-64
2021/07/19 02:32:20;;;;;;;10.50;6.80;;;;;;;;;;5100216;28;20233;-63
2021/07/19 02:34:48;;;;;;;13.43;7.17;;;;;;;;;;5099807;28;20202;-63
2021/07/19 02:37:17;;;;;;;11.57;6.60;;;;;;;;;;5099409;28;20591;-65
2021/07/19 02:39:46;;;;;;;12.20;6.77;;;;;;;;;;5099323;28;20205;-64
2021/07/19 02:42:15;;;;;;;8.93;6.10;;;;;;;;;;5099653;28;20245;-63
2021/07/19 02:44:43;;;;;;;9.23;6.43;;;;;;;;;;5099659;28;20229;-65
2021/07/19 02:47:12;;;;;;;9.57;6.33;;;;;;;;;;5099613;28;20215;-65
2021/07/19 02:49:41;;;;;;;8.43;6.00;;;;;;;;;;5097757;28;20558;-64
2021/07/19 02:52:09;;;;;;;8.40;5.53;;;;;;;;;;5099660;28;20229;-64
2021/07/19 02:54:38;;;;;;;9.20;6.57;;;;;;;;;;5099263;28;20201;-64
2021/07/19 02:57:09;;;;;;;8.63;5.90;;;;;;;;;;5099384;28;20570;-63
2021/07/19 02:59:36;;;;;;;9.90;6.43;;;;;;;;;;5086353;28;20289;-64
2021/07/19 03:02:05;;;;;;;10.17;6.30;;;;;;;;;;5099291;28;20236;-65
2021/07/19 03:04:37;;;;;;;11.67;5.80;;;;;;;;;;5098009;28;20221;-63
2021/07/19 03:07:07;;;;;;;8.13;5.90;;;;;;;;;;5098606;28;20207;-65
2021/07/19 03:09:39;;;;;;;10.23;7.00;;;;;;;;;;5097460;28;20202;-65
2021/07/19 03:12:09;;;;;;;10.90;6.03;;;;;;;;;;5097882;28;20214;-65
2021/07/19 03:14:38;;;;;;;11.03;5.60;;;;;;;;;;5097781;28;20196;-65
2021/07/19 03:17:07;;;;;;;11.77;7.07;;;;;;;;;;5096797;28;20283;-65
2021/07/19 03:19:36;;;;;;;7.37;5.77;;;;;;;;;;5097743;28;20670;-65
2021/07/19 03:22:05;;;;;;;12.60;6.27;;;;;;;;;;5103314;28;20249;-64
2021/07/19 03:24:33;;;;;;;11.03;6.20;;;;;;;;;;5118639;28;20230;-64
2021/07/19 03:27:01;;;;;;;10.30;6.40;;;;;;;;;;5100540;27;20216;-64
2021/07/19 03:29:33;;;;;;;10.43;6.00;;;;;;;;;;5118704;28;20710;-64
2021/07/19 03:32:01;;;;;;;11.90;6.53;;;;;;;;;;5108456;28;20221;-64
2021/07/19 03:34:30;;;;;;;13.63;6.80;;;;;;;;;;5098313;28;20205;-64
2021/07/19 03:36:58;;;;;;;10.40;6.67;;;;;;;;;;5097844;28;20571;-64
2021/07/19 03:39:26;;;;;;;10.37;6.20;;;;;;;;;;5097825;28;20276;-64
2021/07/19 03:41:55;;;;;;;11.70;6.93;;;;;;;;;;5095536;28;20230;-63
2021/07/19 03:44:23;;;;;;;11.37;6.73;;;;;;;;;;5110084;28;20205;-63
2021/07/19 03:46:53;;;;;;;9.20;5.63;;;;;;;;;;5118787;28;20213;-63
2021/07/19 03:49:21;;;;;;;9.67;6.50;;;;;;;;;;5115250;28;20285;-65
2021/07/19 03:51:50;;;;;;;8.07;5.70;;;;;;;;;;5118625;28;20594;-63
2021/07/19 03:54:18;;;;;;;8.40;6.13;;;;;;;;;;5118485;28;20675;-65
2021/07/19 03:56:46;;;;;;;11.73;6.90;;;;;;;;;;5118476;28;20207;-64
2021/07/19 03:59:15;;;;;;;11.93;6.83;;;;;;;;;;5096357;28;20591;-65
2021/07/19 04:01:44;;;;;;;7.37;5.67;;;;;;;;;;5098061;28;20705;-65
2021/07/19 04:04:17;;;;;;;12.00;6.63;;;;;;;;;;5098021;28;20673;-65
2021/07/19 04:06:45;;;;;;;9.13;6.20;;;;;;;;;;5098292;28;20317;-65
2021/07/19 04:09:13;;;;;;;9.80;6.60;;;;;;;;;;5097977;28;20215;-64
2021/07/19 04:11:41;;;;;;;11.00;6.63;;;;;;;;;;5097483;28;20225;-65
2021/07/19 04:14:11;;;;;;;11.67;7.30;;;;;;;;;;5097829;28;20568;-64
2021/07/19 04:16:39;;;;;;;9.13;6.43;;;;;;;;;;5097723;28;20197;-65
2021/07/19 04:19:07;;;;;;;11.30;6.43;;;;;;;;;;5097984;28;20209;-65
2021/07/19 04:21:37;;;;;;;12.17;6.57;;;;;;;;;;5097733;28;20232;-64
2021/07/19 04:24:05;;;;;;;9.77;6.53;;;;;;;;;;5097935;28;20304;-65
2021/07/19 04:26:34;;;;;;;9.27;6.93;;;;;;;;;;5097283;28;20317;-65
2021/07/19 04:29:02;;;;;;;11.87;6.97;;;;;;;;;;5098043;28;20209;-65
2021/07/19 04:31:30;;;;;;;10.40;5.97;;;;;;;;;;5098453;28;20225;-64
2021/07/19 04:33:58;;;;;;;11.83;7.43;;;;;;;;;;5098027;28;20269;-65
2021/07/19 04:36:28;;;;;;;10.87;7.03;;;;;;;;;;5097825;28;20569;-65
2021/07/19 04:38:57;;;;;;;9.80;6.10;;;;;;;;;;5097673;28;20233;-65
2021/07/19 04:41:25;;;;;;;12.27;6.67;;;;;;;;;;5097333;28;20589;-65
2021/07/19 04:43:53;;;;;;;12.70;6.70;;;;;;;;;;5097956;28;20205;-65
2021/07/19 04:46:21;;;;;;;10.90;6.67;;;;;;;;;;5098007;28;20228;-64
2021/07/19 04:48:49;;;;;;;8.23;6.23;;;;;;;;;;5097698;28;20213;-65
2021/07/19 04:51:17;;;;;;;8.67;6.47;;;;;;;;;;5097943;28;20237;-64
2021/07/19 04:53:48;;;;;;;9.63;6.50;;;;;;;;;;5097852;28;20212;-65
2021/07/19 04:56:19;;;;;;;15.07;7.63;;;;;;;;;;5097639;28;20668;-64
2021/07/19 04:58:49;;;;;;;9.90;6.70;;;;;;;;;;5098296;28;20269;-64
2021/07/19 05:01:18;;;;;;;10.73;7.37;;;;;;;;;;5098076;28;20235;-64
2021/07/19 05:03:47;;;;;;;11.23;7.17;;;;;;;;;;5097990;28;20243;-64
2021/07/19 05:06:15;;;;;;;11.63;6.83;;;;;;;;;;5097728;28;20229;-64
2021/07/19 05:08:44;;;;;;;9.90;6.37;;;;;;;;;;5098150;28;20604;-64
2021/07/19 05:11:12;;;;;;;10.73;6.67;;;;;;;;;;5103134;28;20301;-64
2021/07/19 05:13:42;;;;;;;9.53;5.90;;;;;;;;;;5099489;28;20203;-64
2021/07/19 05:16:12;;;;;;;11.40;5.80;;;;;;;;;;5097830;28;20206;-64
2021/07/19 05:18:40;;;;;;;11.20;6.87;;;;;;;;;;5097752;28;20206;-64
2021/07/19 05:21:08;;;;;;;9.60;6.77;;;;;;;;;;5097542;28;20212;-64
2021/07/19 05:23:37;;;;;;;9.97;6.37;;;;;;;;;;5097608;28;20211;-64
2021/07/19 05:26:05;;;;;;;9.10;6.60;;;;;;;;;;5096832;28;20214;-64
2021/07/19 05:28:33;;;;;;;9.53;6.57;;;;;;;;;;5097334;28;20576;-64
2021/07/19 05:31:03;;;;;;;10.13;6.37;;;;;;;;;;5097079;28;20207;-64
2021/07/19 05:33:31;;;;;;;11.90;6.83;;;;;;;;;;5097157;28;20212;-67
2021/07/19 05:35:59;;;;;;;9.27;6.00;;;;;;;;;;5097070;28;20212;-64
2021/07/19 05:38:28;;;;;;;11.37;6.87;;;;;;;;;;5097114;28;20242;-64
2021/07/19 05:40:56;;;;;;;9.47;6.73;;;;;;;;;;5100090;28;20205;-65
2021/07/19 05:43:24;;;;;;;10.23;6.77;;;;;;;;;;5101128;28;20270;-64
2021/07/19 05:45:52;;;;;;;10.70;5.90;;;;;;;;;;5101000;28;20226;-64
2021/07/19 05:48:21;;;;;;;8.27;5.83;;;;;;;;;;5100956;28;20209;-64
2021/07/19 05:50:49;;;;;;;8.23;6.27;;;;;;;;;;5100654;28;20210;-64
2021/07/19 05:53:17;;;;;;;10.30;5.80;;;;;;;;;;5100495;28;20586;-64
2021/07/19 05:55:45;;;;;;;8.37;5.83;;;;;;;;;;5100424;28;20201;-64
2021/07/19 05:58:13;;;;;;;8.63;5.53;;;;;;;;;;5100719;28;20216;-64
2021/07/19 06:00:41;;;;;;;9.43;6.27;;;;;;;;;;5100660;28;20294;-65
2021/07/19 06:03:09;;;;;;;9.30;5.93;;;;;;;;;;5100613;28;20271;-64
2021/07/19 06:05:39;;;;;;;11.80;6.37;;;;;;;;;;5100565;28;20205;-64
2021/07/19 06:08:07;;;;;;;10.97;5.67;;;;;;;;;;5100220;28;20319;-67
2021/07/19 06:10:35;;;;;;;7.43;5.70;;;;;;;;;;5100172;28;20666;-72
2021/07/19 06:13:03;;;;;;;8.67;5.97;;;;;;;;;;5099915;28;20228;-71
2021/07/19 06:15:31;;;;;;;10.40;6.07;;;;;;;;;;5100128;28;20679;-67
2021/07/19 06:17:59;;;;;;;10.00;6.20;;;;;;;;;;5100006;28;20262;-67
2021/07/19 06:20:29;;;;;;;12.17;6.10;;;;;;;;;;5100071;28;20571;-70
2021/07/19 06:23:01;;;;;;;9.23;6.03;;;;;;;;;;5100217;28;20308;-69
2021/07/19 06:25:31;;;;;;;9.13;5.47;;;;;;;;;;5099794;28;20216;-69
2021/07/19 06:27:59;;;;;;;9.93;6.20;;;;;;;;;;5099995;28;20229;-68
2021/07/19 06:30:27;;;;;;;9.83;5.63;;;;;;;;;;5099907;28;20209;-69
2021/07/19 06:32:55;;;;;;;7.97;6.10;;;;;;;;;;5099703;28;20265;-69
2021/07/19 06:35:23;;;;;;;7.87;5.73;;;;;;;;;;5099734;28;20209;-69
2021/07/19 06:37:51;;;;;;;11.53;6.07;;;;;;;;;;5099666;28;20236;-69
2021/07/19 06:40:20;;;;;;;10.43;6.00;;;;;;;;;;5099294;28;20212;-69
2021/07/19 06:42:48;;;;;;;7.33;5.43;;;;;;;;;;5099550;28;20308;-69
2021/07/19 06:45:16;;;;;;;9.20;5.43;;;;;;;;;;5099997;28;20302;-67
2021/07/19 06:51:01;;;;;;;9.77;5.13;;;;;;;;;;5097847;28;20263;-71
2021/07/19 06:53:29;;;;;;;7.93;5.87;;;;;;;;;;5102117;28;20279;-72
2021/07/19 06:55:58;;;;;;;8.97;5.20;;;;;;;;;;5107409;28;20216;-72
2021/07/19 06:58:26;;;;;;;8.47;5.73;;;;;;;;;;5106773;28;20196;-72
2021/07/19 07:00:58;;;;;;;8.10;5.80;;;;;;;;;;5107568;28;20203;-72
2021/07/19 07:03:26;;;;;;;10.63;5.57;;;;;;;;;;5102984;28;20572;-72
2021/07/19 07:05:54;;;;;;;9.43;5.30;;;;;;;;;;5109365;28;20193;-72
2021/07/19 07:08:22;;;;;;;7.63;5.20;;;;;;;;;;5103438;28;20240;-72
2021/07/19 07:10:52;;;;;;;9.40;5.40;;;;;;;;;;5107979;28;20209;-72
2021/07/19 07:13:22;;;;;;;10.50;5.70;;;;;;;;;;5104627;28;20217;-69
2021/07/19 07:15:50;;;;;;;9.03;5.87;;;;;;;;;;5108552;28;20233;-69
2021/07/19 07:18:18;;;;;;;8.03;5.17;;;;;;;;;;5108959;28;20229;-74
2021/07/19 07:20:46;;;;;;;10.53;7.77;;;;;;;;;;5094328;28;20569;-71
2021/07/19 07:23:14;;;;;;;8.10;5.70;;;;;;;;;;5088990;28;20736;-73
2021/07/19 07:25:42;;;;;;;7.30;5.60;;;;;;;;;;5085695;28;20713;-73
2021/07/19 07:28:10;;;;;;;11.70;6.30;;;;;;;;;;5086649;28;20701;-71
2021/07/19 07:30:39;;;;;;;6.57;4.80;;;;;;;;;;5091859;28;20349;-73
2021/07/19 07:33:07;;;;;;;7.30;5.00;;;;;;;;;;5106735;28;20219;-71
2021/07/19 07:35:40;;;;;;;24.40;17.13;;;;;;;;;;5106750;28;20207;-74
2021/07/19 07:38:08;;;;;;;7.10;5.40;;;;;;;;;;5106621;28;20218;-74
2021/07/19 07:40:36;;;;;;;8.17;5.63;;;;;;;;;;5097555;28;20205;-73
2021/07/19 07:43:04;;;;;;;8.63;6.00;;;;;;;;;;5088712;28;20221;-72
2021/07/19 07:45:32;;;;;;;9.70;5.60;;;;;;;;;;5099626;28;20197;-72
2021/07/19 07:48:01;;;;;;;8.90;5.40;;;;;;;;;;5107151;28;20300;-75
2021/07/19 07:50:30;;;;;;;11.63;6.17;;;;;;;;;;5109364;28;20200;-73
2021/07/19 07:52:57;;;;;;;9.07;5.47;;;;;;;;;;5106481;28;20651;-73
2021/07/19 07:55:26;;;;;;;8.87;5.60;;;;;;;;;;5102363;28;20688;-72
2021/07/19 07:57:53;;;;;;;8.57;5.70;;;;;;;;;;5102981;28;20662;-72
2021/07/19 08:00:22;;;;;;;8.67;5.47;;;;;;;;;;5098086;28;20291;-73
2021/07/19 08:02:50;;;;;;;8.77;5.77;;;;;;;;;;5103162;28;20297;-74
2021/07/19 08:05:19;;;;;;;9.93;5.57;;;;;;;;;;5105834;28;20219;-72
2021/07/19 08:07:47;;;;;;;10.50;5.77;;;;;;;;;;5103366;28;20246;-72
2021/07/19 08:10:16;;;;;;;9.00;6.20;;;;;;;;;;5106009;28;20199;-73
2021/07/19 08:12:46;;;;;;;10.87;5.43;;;;;;;;;;5105807;28;20607;-73
2021/07/19 08:15:15;;;;;;;7.43;6.27;;;;;;;;;;5107182;28;20215;-71
2021/07/19 08:17:43;;;;;;;7.90;5.60;;;;;;;;;;5105844;28;20284;-71
2021/07/19 08:20:12;;;;;;;7.77;5.70;;;;;;;;;;5105850;28;20275;-71
2021/07/19 08:22:42;;;;;;;7.50;5.13;;;;;;;;;;5105194;28;20220;-71
2021/07/19 08:25:10;;;;;;;8.83;6.57;;;;;;;;;;5105683;28;20214;-73
2021/07/19 08:27:38;;;;;;;10.33;4.97;;;;;;;;;;5105957;28;20219;-73
2021/07/19 08:30:07;;;;;;;8.33;5.67;;;;;;;;;;5106181;28;20228;-73
2021/07/19 08:32:35;;;;;;;7.57;5.33;;;;;;;;;;5098099;28;20246;-73
2021/07/19 08:35:09;;;;;;;7.37;5.70;;;;;;;;;;5098061;28;20208;-73
2021/07/19 08:37:37;;;;;;;5.70;4.83;;;;;;;;;;5097721;28;20237;-72
2021/07/19 08:40:08;;;;;;;8.73;6.17;;;;;;;;;;5097641;28;20212;-72
2021/07/19 08:42:36;;;;;;;7.73;5.77;;;;;;;;;;5097616;28;20231;-75
2021/07/19 08:45:05;;;;;;;7.73;4.97;;;;;;;;;;5097705;28;20289;-73
2021/07/19 08:47:35;;;;;;;11.17;5.90;;;;;;;;;;5100073;28;20232;-78
2021/07/19 08:50:04;;;;;;;10.13;5.60;;;;;;;;;;5099993;28;20207;-71
2021/07/19 08:52:32;;;;;;;9.37;4.60;;;;;;;;;;5107236;28;20247;-71
2021/07/19 08:55:01;;;;;;;10.00;5.70;;;;;;;;;;5107186;28;20195;-70
2021/07/19 08:57:30;;;;;;;9.07;5.03;;;;;;;;;;5114360;28;20198;-74
2021/07/19 09:00:00;;;;;;;10.70;4.97;;;;;;;;;;5103550;28;20211;-71
2021/07/19 09:02:30;;;;;;;7.00;5.33;;;;;;;;;;5106046;28;20220;-72
2021/07/19 09:04:58;;;;;;;8.10;5.30;;;;;;;;;;5102337;28;20198;-71
2021/07/19 09:07:26;;;;;;;7.70;5.03;;;;;;;;;;5111011;28;20197;-72
2021/07/19 09:09:54;;;;;;;7.40;5.00;;;;;;;;;;5117031;28;20566;-70
2021/07/19 09:12:31;;;;;;;7.73;4.90;;;;;;;;;;5109465;28;20272;-70
2021/07/19 09:14:59;;;;;;;7.17;4.83;;;;;;;;;;5086962;28;20764;-71
2021/07/19 09:17:28;;;;;;;8.63;6.07;;;;;;;;;;5100870;28;20258;-72
2021/07/19 09:19:57;;;;;;;10.80;5.67;;;;;;;;;;5101100;28;20582;-71
2021/07/19 09:22:26;;;;;;;6.87;5.30;;;;;;;;;;5097465;28;20244;-72
2021/07/19 09:24:54;;;;;;;7.57;5.43;;;;;;;;;;5100854;28;20305;-71
2021/07/19 09:27:23;;;;;;;9.33;5.70;;;;;;;;;;5104746;28;20202;-71
2021/07/19 09:29:52;;;;;;;6.80;5.17;;;;;;;;;;5125158;28;20286;-70
2021/07/19 09:32:20;;;;;;;6.33;5.03;;;;;;;;;;5117840;28;20297;-70
2021/07/19 09:34:48;;;;;;;8.43;5.30;;;;;;;;;;5108393;28;20212;-70
2021/07/19 09:37:17;;;;;;;6.07;4.93;;;;;;;;;;5092202;28;20213;-70
2021/07/19 09:39:46;;;;;;;10.83;5.20;;;;;;;;;;5084643;28;20191;-70
2021/07/19 09:42:15;;;;;;;7.43;5.13;;;;;;;;;;5087715;28;20222;-69
2021/07/19 09:44:47;;;;;;;6.67;5.03;;;;;;;;;;5088701;28;20205;-70
2021/07/19 09:47:20;;;;;;;6.80;5.60;;;;;;;;;;5094516;28;20199;-79
2021/07/19 09:49:51;;;;;;;6.87;5.53;;;;;;;;;;5105727;28;20226;-72
2021/07/19 09:52:19;;;;;;;8.37;5.20;;;;;;;;;;5108449;28;20684;-73
2021/07/19 09:54:47;;;;;;;8.53;6.07;;;;;;;;;;5097915;28;20208;-73
2021/07/19 09:57:15;;;;;;;7.00;5.33;;;;;;;;;;5099249;28;20560;-74
2021/07/19 10:00:01;;;;;;;10.10;5.30;;;;;;;;;;5107586;28;20662;-71
2021/07/19 10:02:34;;;;;;;7.93;5.83;;;;;;;;;;5100437;28;20214;-74
2021/07/19 10:05:03;;;;;;;12.07;5.33;;;;;;;;;;5107842;28;20261;-77
2021/07/19 10:07:31;;;;;;;8.60;6.03;;;;;;;;;;5087710;28;20226;-76
2021/07/19 10:10:00;;;;;;;10.10;5.00;;;;;;;;;;5101869;28;20852;-76
2021/07/19 10:12:28;;;;;;;7.60;5.50;;;;;;;;;;5091567;28;20757;-74
2021/07/19 10:14:57;;;;;;;6.83;5.20;;;;;;;;;;5110181;28;20201;-77
2021/07/19 10:17:47;;;;;;;7.63;5.60;;;;;;;;;;5106938;28;20200;-73
2021/07/19 10:20:15;;;;;;;10.27;6.80;;;;;;;;;;5105713;28;20203;-70
2021/07/19 10:22:43;;;;;;;6.37;5.13;;;;;;;;;;5105340;28;20231;-73
2021/07/19 10:25:14;;;;;;;7.40;4.97;;;;;;;;;;5106511;28;20202;-74
2021/07/19 10:27:43;;;;;;;6.33;5.17;;;;;;;;;;5107628;28;20289;-76
2021/07/19 10:30:11;;;;;;;8.73;4.80;;;;;;;;;;5107766;28;20592;-77
2021/07/19 10:32:39;;;;;;;9.87;5.43;;;;;;;;;;5100942;28;20224;-77
2021/07/19 10:35:09;;;;;;;7.67;5.50;;;;;;;;;;5098880;28;20194;-76
2021/07/19 10:37:39;;;;;;;11.07;5.43;;;;;;;;;;5095254;28;20233;-77
2021/07/19 10:40:10;;;;;;;7.83;5.10;;;;;;;;;;5086455;28;20208;-76
2021/07/19 10:42:40;;;;;;;6.70;5.47;;;;;;;;;;5096679;28;20227;-76
2021/07/19 10:45:09;;;;;;;6.93;5.20;;;;;;;;;;5089315;28;20205;-73
2021/07/19 10:47:48;;;;;;;7.43;5.90;;;;;;;;;;5088935;28;20235;-73
2021/07/19 10:50:18;;;;;;;6.57;5.03;;;;;;;;;;5098845;28;20228;-78
2021/07/19 10:52:46;;;;;;;8.33;6.20;;;;;;;;;;5098859;28;20229;-76
2021/07/19 10:55:25;;;;;;;8.23;5.40;;;;;;;;;;5102505;28;20204;-77
2021/07/19 10:58:01;;;;;;;7.10;5.33;;;;;;;;;;5099967;28;20949;-77
2021/07/19 11:00:29;;;;;;;9.87;5.63;;;;;;;;;;5092654;28;20236;-77
2021/07/19 11:03:03;;;;;;;6.60;5.20;;;;;;;;;;5099518;28;20268;-77
2021/07/19 11:05:36;;;;;;;8.73;5.60;;;;;;;;;;5093839;28;20298;-76
2021/07/19 11:08:04;;;;;;;8.20;5.20;;;;;;;;;;5084957;28;20196;-75
2021/07/19 11:10:44;;;;;;;8.00;4.63;;;;;;;;;;5089701;28;20237;-76
2021/07/19 11:13:12;;;;;;;9.13;6.20;;;;;;;;;;5090250;28;20225;-76
2021/07/19 11:15:41;;;;;;;9.43;5.30;;;;;;;;;;5093355;28;20659;-76
2021/07/19 11:18:15;;;;;;;8.20;5.20;;;;;;;;;;5092887;28;20201;-77
2021/07/19 11:20:46;;;;;;;5.13;4.67;;;;;;;;;;5094522;28;20214;-76
2021/07/19 11:23:14;;;;;;;11.37;4.90;;;;;;;;;;5097493;28;20233;-78
2021/07/19 11:25:56;;;;;;;7.93;5.10;;;;;;;;;;5095558;28;20202;-76
2021/07/19 11:28:24;;;;;;;7.23;4.70;;;;;;;;;;5099286;28;20693;-75
2021/07/19 11:31:06;;;;;;;9.50;4.60;;;;;;;;;;5098746;28;20287;-75
2021/07/19 11:33:35;;;;;;;6.67;4.80;;;;;;;;;;5101135;28;20198;-76
2021/07/19 11:36:16;;;;;;;6.17;4.93;;;;;;;;;;5097482;28;20198;-74
2021/07/19 11:38:44;;;;;;;8.83;5.10;;;;;;;;;;5086920;28;20233;-76
2021/07/19 11:41:20;;;;;;;9.90;5.10;;;;;;;;;;5085567;28;20204;-77
2021/07/19 11:43:49;;;;;;;7.23;4.67;;;;;;;;;;5089893;28;20205;-78
2021/07/19 11:46:27;;;;;;;7.40;4.93;;;;;;;;;;5101142;28;20205;-77
2021/07/19 11:48:59;;;;;;;11.07;5.17;;;;;;;;;;5098806;28;20217;-75
2021/07/19 11:51:30;;;;;;;9.33;4.57;;;;;;;;;;5096803;28;20310;-76
2021/07/19 11:53:58;;;;;;;10.00;5.50;;;;;;;;;;5095862;28;20203;-75
2021/07/19 11:56:26;;;;;;;5.27;4.57;;;;;;;;;;5088077;28;20207;-74
2021/07/19 11:58:55;;;;;;;8.13;5.23;;;;;;;;;;5094780;28;20208;-75
2021/07/19 12:01:27;;;;;;;7.97;4.77;;;;;;;;;;5089832;28;20230;-74
2021/07/19 12:03:56;;;;;;;7.83;5.13;;;;;;;;;;5082572;28;20208;-74
2021/07/19 12:06:24;;;;;;;8.47;5.00;;;;;;;;;;5089975;28;20240;-73
2021/07/19 12:08:55;;;;;;;8.27;4.83;;;;;;;;;;5092486;28;20207;-73
2021/07/19 12:11:23;;;;;;;5.63;4.50;;;;;;;;;;5090577;28;20233;-74
2021/07/19 12:13:56;;;;;;;6.73;4.63;;;;;;;;;;5096932;28;20624;-77
2021/07/19 12:16:32;;;;;;;7.77;5.37;;;;;;;;;;5090695;28;20202;-78
2021/07/19 12:19:00;;;;;;;5.97;4.93;;;;;;;;;;5080220;28;20214;-76
2021/07/19 12:21:30;;;;;;;7.20;5.27;;;;;;;;;;5087026;28;20221;-75
2021/07/19 12:24:00;;;;;;;5.83;5.10;;;;;;;;;;5096235;28;20208;-73
2021/07/19 12:26:36;;;;;;;8.47;4.93;;;;;;;;;;5095943;28;20204;-74
2021/07/19 12:29:05;;;;;;;6.40;4.90;;;;;;;;;;5093174;28;20589;-74
2021/07/19 12:31:37;;;;;;;7.33;4.90;;;;;;;;;;5094968;28;20221;-75
2021/07/19 12:34:06;;;;;;;7.50;5.20;;;;;;;;;;5094530;28;20206;-75
2021/07/19 12:36:34;;;;;;;7.57;4.97;;;;;;;;;;5093224;28;20670;-73
2021/07/19 12:39:06;;;;;;;8.07;5.33;;;;;;;;;;5095784;28;20239;-75
2021/07/19 12:41:34;;;;;;;7.90;5.20;;;;;;;;;;5098244;28;20219;-74
2021/07/19 12:44:03;;;;;;;7.97;5.90;;;;;;;;;;5101146;28;20199;-74
2021/07/19 12:46:31;;;;;;;8.07;5.30;;;;;;;;;;5097629;28;20213;-76
2021/07/19 12:49:02;;;;;;;7.73;4.90;;;;;;;;;;5101187;28;20228;-76
2021/07/19 12:51:30;;;;;;;12.23;5.30;;;;;;;;;;5107737;28;20230;-77
2021/07/19 12:53:59;;;;;;;6.77;5.10;;;;;;;;;;5111671;28;20203;-77
2021/07/19 12:56:29;;;;;;;8.43;5.87;;;;;;;;;;5103413;28;20193;-75
2021/07/19 12:58:58;;;;;;;9.17;4.80;;;;;;;;;;5099956;28;20199;-75
2021/07/19 13:01:30;;;;;;;8.20;5.47;;;;;;;;;;5100944;28;20710;-75
2021/07/19 13:04:02;;;;;;;5.73;5.03;;;;;;;;;;5104462;28;20194;-74
2021/07/19 13:06:30;;;;;;;10.20;5.40;;;;;;;;;;5102020;28;20283;-76
2021/07/19 13:08:58;;;;;;;8.07;5.70;;;;;;;;;;5108214;28;20200;-77
2021/07/19 13:11:33;;;;;;;6.47;5.17;;;;;;;;;;5102592;28;20225;-75
2021/07/19 13:14:10;;;;;;;7.90;5.10;;;;;;;;;;5105898;28;20275;-75
2021/07/19 13:16:39;;;;;;;7.50;5.23;;;;;;;;;;5103456;28;20261;-75
2021/07/19 13:19:07;;;;;;;7.97;5.17;;;;;;;;;;5097435;28;20199;-76
2021/07/19 13:21:35;;;;;;;7.80;5.23;;;;;;;;;;5096643;28;20225;-75
2021/07/19 13:24:13;;;;;;;8.03;5.03;;;;;;;;;;5101465;28;20286;-74
2021/07/19 13:26:43;;;;;;;11.80;5.37;;;;;;;;;;5101990;28;20284;-76
2021/07/19 13:29:11;;;;;;;6.03;4.77;;;;;;;;;;5100823;28;20211;-77
2021/07/19 13:31:39;;;;;;;7.53;5.67;;;;;;;;;;5105745;28;20231;-76
2021/07/19 13:34:14;;;;;;;8.13;5.40;;;;;;;;;;5102684;28;20283;-76
2021/07/19 13:36:46;;;;;;;8.75;4.97;;;;;;;;;;5103293;28;20200;-77
2021/07/19 13:39:14;;;;;;;8.25;5.15;;;;;;;;;;5101905;28;20325;-74
2021/07/19 13:41:43;;;;;;;6.40;4.90;;;;;;;;;;5108520;28;20530;-78
2021/07/19 13:44:13;;;;;;;8.50;5.07;;;;;;;;;;5098608;28;20204;-79
2021/07/19 13:46:57;;;;;;;7.20;4.38;;;;;;;;;;5092640;28;20269;-78
2021/07/19 13:49:25;;;;;;;6.20;4.97;;;;;;;;;;5094696;28;20565;-78
2021/07/19 13:51:53;;;;;;;9.10;4.90;;;;;;;;;;5097851;28;20238;-76
2021/07/19 13:54:21;;;;;;;5.60;3.88;;;;;;;;;;5096172;28;20224;-78
2021/07/19 13:56:51;;;;;;;7.35;4.70;;;;;;;;;;5096171;28;20227;-76
2021/07/19 13:59:19;;;;;;;6.65;4.53;;;;;;;;;;5094445;28;20204;-78
2021/07/19 14:01:47;;;;;;;7.77;4.70;;;;;;;;;;5096678;28;20214;-77
2021/07/19 14:04:16;;;;;;;9.70;4.73;;;;;;;;;;5092592;28;20206;-78
2021/07/19 14:06:44;;;;;;;6.37;4.70;;;;;;;;;;5093161;28;20229;-78
2021/07/19 14:09:14;;;;;;;11.32;5.15;;;;;;;;;;5094673;28;20210;-78
2021/07/19 14:11:42;;;;;;;9.50;4.80;;;;;;;;;;5099189;28;20235;-75
2021/07/19 14:14:11;;;;;;;6.95;4.32;;;;;;;;;;5109875;28;20200;-75
2021/07/19 14:16:39;;;;;;;238.60;150.73;;;;;;;;;;5099270;28;20212;-74
2021/07/19 14:19:07;;;;;;;13.85;7.13;;;;;;;;;;5101369;28;20236;-73
2021/07/19 14:21:35;;;;;;;8.30;5.70;;;;;;;;;;5101317;28;20263;-72
2021/07/19 14:24:04;;;;;;;7.50;5.28;;;;;;;;;;5097311;28;20198;-72
2021/07/19 14:26:32;;;;;;;9.45;5.05;;;;;;;;;;5097005;28;20210;-72
2021/07/19 14:29:00;;;;;;;8.68;4.78;;;;;;;;;;5097182;28;20207;-75
2021/07/19 14:31:30;;;;;;;6.50;4.65;;;;;;;;;;5099716;28;20233;-75
2021/07/19 14:33:58;;;;;;;8.43;5.57;;;;;;;;;;5090727;28;20197;-75
2021/07/19 14:36:26;;;;;;;8.32;5.10;;;;;;;;;;5091171;28;20204;-76
2021/07/19 14:39:06;;;;;;;9.82;5.90;;;;;;;;;;5101384;28;20229;-75
2021/07/19 14:41:34;;;;;;;10.05;5.55;;;;;;;;;;5089895;28;20662;-75
2021/07/19 14:44:02;;;;;;;10.80;4.40;;;;;;;;;;5099141;28;20221;-77
2021/07/19 14:46:31;;;;;;;6.93;5.10;;;;;;;;;;5100040;28;20264;-74
2021/07/19 14:48:59;;;;;;;8.07;5.03;;;;;;;;;;5099030;28;20205;-75
2021/07/19 14:51:27;;;;;;;6.32;4.65;;;;;;;;;;5101850;28;20239;-74
2021/07/19 14:53:55;;;;;;;8.07;4.60;;;;;;;;;;5099456;28;20205;-74
2021/07/19 14:56:23;;;;;;;5.70;4.07;;;;;;;;;;5099047;28;20208;-74
2021/07/19 14:58:51;;;;;;;5.22;4.13;;;;;;;;;;5099777;28;20213;-74